Orbital elements of BREEZE-M DEB
| Launched | 27 February 2006 |
| Flight ended | – |
| Launch site | Tyuratam Missile and Space Center, Kazakhstan (Also known as Baikonur Cosmodrome) |
| Owner | Commonwealth of Independent States (former USSR) |
| NORAD ID | 32034 |
| Date fetched |
Epoch osculation |
Inc. [°] |
Ecc. | RA asc node [hr] |
Arg Peri. [°] |
Mean anom [°] |
Mean motion [rev/day] |
Abs. mag |
| Date fetched |
Epoch osculation |
Inc. [°] |
Ecc. | RA asc node [hr] |
Arg Peri. [°] |
Mean anom [°] |
Mean motion [rev/day] |
Abs. mag |
| 2026 May 04 17:57 | 2026 Apr 30 09:16:59 | 51.6384 | 0.50848 | 13.7421 | 354.1204 | 1.6948 | 5.23935 | – |
| 2026 May 03 17:57 | 2026 Apr 30 09:16:59 | 51.6384 | 0.50848 | 13.7421 | 354.1204 | 1.6948 | 5.23935 | – |
| 2026 May 02 17:57 | 2026 Apr 30 09:16:59 | 51.6384 | 0.50848 | 13.7421 | 354.1204 | 1.6948 | 5.23935 | – |
| 2026 May 01 17:56 | 2026 Apr 30 09:16:59 | 51.6384 | 0.50848 | 13.7421 | 354.1204 | 1.6948 | 5.23935 | – |
| 2026 Apr 30 17:56 | 2026 Apr 30 09:16:59 | 51.6384 | 0.50848 | 13.7421 | 354.1204 | 1.6948 | 5.23935 | – |
| 2026 Apr 29 17:57 | 2026 Apr 24 06:42:41 | 51.6386 | 0.50847 | 14.0344 | 350.8526 | 1.6948 | 5.23935 | – |
| 2026 Apr 28 17:56 | 2026 Apr 24 06:42:41 | 51.6386 | 0.50847 | 14.0344 | 350.8526 | 1.6948 | 5.23935 | – |
| 2026 Apr 27 17:58 | 2026 Apr 24 06:42:41 | 51.6386 | 0.50847 | 14.0344 | 350.8526 | 1.6948 | 5.23935 | – |
| 2026 Apr 26 17:58 | 2026 Apr 24 06:42:41 | 51.6386 | 0.50847 | 14.0344 | 350.8526 | 1.6948 | 5.23935 | – |
| 2026 Apr 25 17:58 | 2026 Apr 24 06:42:41 | 51.6386 | 0.50847 | 14.0344 | 350.8526 | 1.6948 | 5.23935 | – |
| 2026 Apr 24 17:59 | 2026 Apr 24 06:42:41 | 51.6386 | 0.50847 | 14.0344 | 350.8526 | 1.6948 | 5.23935 | – |
| 2026 Apr 23 17:57 | 2026 Apr 19 07:37:19 | 51.6406 | 0.50844 | 14.2719 | 348.1980 | 1.6948 | 5.23935 | – |
| 2026 Apr 22 17:57 | 2026 Apr 19 07:37:19 | 51.6406 | 0.50844 | 14.2719 | 348.1980 | 1.6948 | 5.23935 | – |
| 2026 Apr 21 17:57 | 2026 Apr 19 07:37:19 | 51.6406 | 0.50844 | 14.2719 | 348.1980 | 1.6948 | 5.23935 | – |
| 2026 Apr 20 17:57 | 2026 Apr 19 07:37:19 | 51.6406 | 0.50844 | 14.2719 | 348.1980 | 1.6948 | 5.23935 | – |
| 2026 Apr 19 17:58 | 2026 Apr 19 07:37:19 | 51.6406 | 0.50844 | 14.2719 | 348.1980 | 1.6948 | 5.23935 | – |
| 2026 Apr 18 17:56 | 2026 Apr 10 08:20:41 | 51.6469 | 0.50843 | 14.7011 | 343.3988 | 1.6948 | 5.23935 | – |
| 2026 Apr 16 17:57 | 2026 Apr 10 08:20:41 | 51.6469 | 0.50843 | 14.7011 | 343.3988 | 1.6948 | 5.23935 | – |
| 2026 Apr 14 17:57 | 2026 Apr 10 08:20:41 | 51.6469 | 0.50843 | 14.7011 | 343.3988 | 1.6948 | 5.23935 | – |
| 2026 Apr 13 17:57 | 2026 Apr 10 08:20:41 | 51.6469 | 0.50843 | 14.7011 | 343.3988 | 1.6948 | 5.23935 | – |
| 2026 Apr 12 17:57 | 2026 Apr 08 15:07:18 | 51.6473 | 0.50843 | 14.7833 | 342.4804 | 1.6948 | 5.23935 | – |
| 2026 Apr 11 17:57 | 2026 Apr 08 15:07:18 | 51.6473 | 0.50843 | 14.7833 | 342.4804 | 1.6948 | 5.23935 | – |
| 2026 Apr 10 17:58 | 2026 Apr 08 15:07:18 | 51.6473 | 0.50843 | 14.7833 | 342.4804 | 1.6948 | 5.23935 | – |
| 2026 Apr 09 18:01 | 2026 Apr 08 15:07:18 | 51.6473 | 0.50843 | 14.7833 | 342.4804 | 1.6948 | 5.23935 | – |
| 2026 Apr 08 17:57 | 2026 Apr 08 15:07:18 | 51.6473 | 0.50843 | 14.7833 | 342.4804 | 1.6948 | 5.23935 | – |
| 2026 Apr 07 17:57 | 2026 Apr 01 09:04:03 | 51.6521 | 0.50843 | 15.1302 | 338.6021 | 1.6948 | 5.23935 | – |